createdAt,value
2019-06-07T00:01:16.468Z,44.76
2019-06-07T00:03:45.643Z,45.12
2019-06-07T00:06:20.334Z,44.75
2019-06-07T00:08:45.942Z,44.73
2019-06-07T00:11:18.621Z,44.87
2019-06-07T00:13:46.226Z,45.17
2019-06-07T00:16:19.894Z,46.13
2019-06-07T00:18:46.476Z,45.35
2019-06-07T00:21:17.797Z,46.35
2019-06-07T00:23:46.820Z,46.20
2019-06-07T00:26:18.204Z,46.27
2019-06-07T00:28:47.350Z,45.84
2019-06-07T00:31:18.200Z,46.09
2019-06-07T00:33:47.829Z,45.43
2019-06-07T00:36:18.243Z,45.45
2019-06-07T00:38:48.151Z,46.15
2019-06-07T00:41:20.257Z,45.76
2019-06-07T00:43:48.428Z,46.46
2019-06-07T00:46:18.875Z,46.86
2019-06-07T00:48:48.661Z,47.79
2019-06-07T00:51:19.591Z,46.62
2019-06-07T00:53:48.970Z,46.17
2019-06-07T00:56:20.319Z,46.71
2019-06-07T00:59:09.822Z,46.68
2019-06-07T01:01:22.684Z,46.50
2019-06-07T01:03:51.428Z,46.44
2019-06-07T01:06:22.932Z,47.20
2019-06-07T01:08:51.831Z,46.76
2019-06-07T01:11:23.475Z,47.17
2019-06-07T01:13:52.141Z,47.38
2019-06-07T01:16:23.668Z,48.13
2019-06-07T01:18:52.407Z,48.46
2019-06-07T01:21:24.899Z,48.51
2019-06-07T01:24:11.015Z,48.49
2019-06-07T01:26:26.760Z,48.27
2019-06-07T01:28:54.633Z,48.80
2019-06-07T01:31:27.546Z,48.85
2019-06-07T01:33:54.912Z,48.47
2019-06-07T01:36:28.895Z,48.16
2019-06-07T01:38:55.239Z,47.82
2019-06-07T01:41:25.892Z,48.52
2019-06-07T01:43:55.419Z,48.91
2019-06-07T01:46:26.684Z,48.28
2019-06-07T01:48:55.665Z,48.46
2019-06-07T01:51:27.024Z,48.83
2019-06-07T01:54:41.015Z,49.00
2019-06-07T01:56:29.611Z,48.48
2019-06-07T01:58:58.003Z,49.18
2019-06-07T02:01:34.686Z,48.86
2019-06-07T02:03:58.255Z,50.74
2019-06-07T02:06:31.841Z,49.37
2019-06-07T02:08:58.549Z,50.37
2019-06-07T02:11:29.397Z,50.26
2019-06-07T02:13:58.916Z,49.54
2019-06-07T02:16:30.980Z,50.42
2019-06-07T02:19:01.982Z,50.37
2019-06-07T02:21:31.619Z,51.75
2019-06-07T02:24:01.228Z,50.83
2019-06-07T02:26:32.533Z,50.17
2019-06-07T02:29:01.606Z,50.25
2019-06-07T02:31:38.261Z,50.56
2019-06-07T02:34:01.945Z,50.40
2019-06-07T02:36:39.103Z,50.47
2019-06-07T02:39:02.310Z,49.48
2019-06-07T02:41:38.534Z,49.69
2019-06-07T02:44:02.774Z,49.54
2019-06-07T02:46:39.961Z,49.68
2019-06-07T02:49:03.082Z,49.72
2019-06-07T02:51:40.021Z,49.55
2019-06-07T02:54:03.359Z,49.12
2019-06-07T02:56:46.433Z,49.91
2019-06-07T02:59:03.849Z,49.59
2019-06-07T03:01:41.220Z,49.24
2019-06-07T03:04:05.337Z,49.14
2019-06-07T03:06:39.619Z,49.89
2019-06-07T03:09:08.794Z,49.73
2019-06-07T03:11:41.066Z,50.40
2019-06-07T03:14:11.897Z,49.27
2019-06-07T03:16:48.576Z,49.69
2019-06-07T03:19:28.993Z,50.01
2019-06-07T03:21:58.661Z,49.50
2019-06-07T03:24:33.151Z,49.48
2019-06-07T03:29:33.813Z,49.35
2019-06-07T03:32:03.131Z,50.16
2019-06-07T03:34:38.618Z,48.88
2019-06-07T03:37:03.638Z,48.57
2019-06-07T03:39:33.756Z,49.07
2019-06-07T03:42:06.647Z,49.19
2019-06-07T03:44:38.219Z,49.40
2019-06-07T03:47:06.615Z,49.62
2019-06-07T03:49:40.123Z,49.20
2019-06-07T03:52:07.199Z,48.93
2019-06-07T03:54:38.463Z,48.24
2019-06-07T03:57:07.821Z,48.89
2019-06-07T03:59:39.559Z,49.06
2019-06-07T04:02:10.457Z,49.10
2019-06-07T04:04:41.567Z,48.97
2019-06-07T04:07:10.731Z,49.64
2019-06-07T04:09:43.079Z,49.01
2019-06-07T04:12:11.431Z,48.73
2019-06-07T04:14:42.997Z,49.04
2019-06-07T04:18:00.473Z,48.88
2019-06-07T04:19:43.843Z,49.18
2019-06-07T04:22:13.265Z,49.39
2019-06-07T04:24:42.680Z,48.45
2019-06-07T04:27:19.185Z,48.64
2019-06-07T04:30:05.384Z,47.51
2019-06-07T04:32:15.539Z,47.61
2019-06-07T04:34:44.896Z,47.14
2019-06-07T04:37:14.459Z,45.56
2019-06-07T04:39:45.339Z,43.63
2019-06-07T04:42:18.010Z,36.42
2019-06-07T04:44:48.672Z,33.02
2019-06-07T04:47:39.629Z,30.89
2019-06-07T04:50:08.940Z,32.09
2019-06-07T04:52:42.619Z,33.53
2019-06-07T04:55:09.493Z,32.18
2019-06-07T04:57:40.425Z,29.05
2019-06-07T05:00:45.830Z,28.34
2019-06-07T05:02:43.248Z,27.13
2019-06-07T05:05:12.008Z,29.79
2019-06-07T05:07:46.144Z,36.91
2019-06-07T05:10:12.672Z,38.54
2019-06-07T05:12:44.308Z,39.56
2019-06-07T05:15:13.112Z,39.68
2019-06-07T05:17:44.862Z,40.26
2019-06-07T05:20:13.729Z,36.61
2019-06-07T05:22:45.339Z,30.66
2019-06-07T05:25:14.447Z,29.68
2019-06-07T05:27:46.762Z,31.40
2019-06-07T05:30:57.700Z,31.56
2019-06-07T05:32:47.596Z,34.57
2019-06-07T05:35:16.991Z,36.01
2019-06-07T05:37:46.234Z,36.62
2019-06-07T05:40:21.397Z,36.92
2019-06-07T05:42:50.959Z,37.43
2019-06-07T05:45:24.185Z,37.73
2019-06-07T05:47:53.436Z,38.11
2019-06-07T05:50:39.025Z,38.62
2019-06-07T05:52:56.299Z,37.51
2019-06-07T05:55:25.570Z,38.81
2019-06-07T05:57:54.829Z,37.65
2019-06-07T06:00:25.288Z,36.63
2019-06-07T06:03:04.821Z,37.91
2019-06-07T06:05:34.408Z,36.77
2019-06-07T06:07:57.843Z,36.36
2019-06-07T06:10:27.141Z,35.89
2019-06-07T06:12:56.403Z,36.46
2019-06-07T06:15:41.747Z,36.83
2019-06-07T06:17:56.999Z,37.00
2019-06-07T06:20:32.869Z,38.36
2019-06-07T06:22:57.414Z,36.12
2019-06-07T06:25:32.857Z,36.93
2019-06-07T06:28:11.631Z,36.88
2019-06-07T06:30:28.882Z,36.94
2019-06-07T06:32:58.929Z,36.71
2019-06-07T06:35:28.378Z,35.96
2019-06-07T06:37:57.662Z,35.55
2019-06-07T06:40:27.076Z,34.52
2019-06-07T06:42:56.408Z,35.23
2019-06-07T06:45:25.825Z,34.65
2019-06-07T06:47:55.148Z,33.96
2019-06-07T06:50:24.456Z,35.59
2019-06-07T06:52:54.897Z,33.53
2019-06-07T06:55:25.858Z,33.66
2019-06-07T06:57:55.149Z,33.67
2019-06-07T07:00:52.550Z,32.81
2019-06-07T07:05:49.957Z,34.11
2019-06-07T07:08:17.639Z,33.18
2019-06-07T07:10:51.190Z,32.83
2019-06-07T07:13:18.365Z,33.81
2019-06-07T07:15:51.041Z,32.02
2019-06-07T07:18:18.633Z,32.00
2019-06-07T07:20:50.418Z,32.15
2019-06-07T07:23:18.936Z,32.69
2019-06-07T07:25:53.632Z,32.15
2019-06-07T07:28:19.288Z,32.01
2019-06-07T07:30:54.445Z,33.00
2019-06-07T07:33:21.626Z,32.84
2019-06-07T07:36:18.510Z,32.62
2019-06-07T07:38:21.938Z,33.21
2019-06-07T07:41:13.967Z,32.89
2019-06-07T07:43:22.354Z,33.19
2019-06-07T07:45:59.258Z,32.59
2019-06-07T07:48:22.617Z,32.23
2019-06-07T07:50:59.241Z,31.95
2019-06-07T07:53:22.979Z,31.41
2019-06-07T07:55:54.960Z,32.38
2019-06-07T07:58:23.344Z,31.96
2019-06-07T08:01:00.692Z,32.00
2019-06-07T08:03:23.666Z,31.11
2019-06-07T08:05:56.790Z,31.40
2019-06-07T08:08:24.043Z,31.52
2019-06-07T08:10:56.456Z,31.11
2019-06-07T08:13:27.410Z,31.14
2019-06-07T08:15:59.227Z,30.67
2019-06-07T08:18:26.478Z,30.60
2019-06-07T08:21:15.370Z,31.07
2019-06-07T08:23:26.770Z,31.58
2019-06-07T08:26:00.028Z,30.51
2019-06-07T08:28:27.226Z,29.83
2019-06-07T08:31:05.565Z,29.99
2019-06-07T08:33:27.526Z,29.06
2019-06-07T08:36:10.314Z,29.78
2019-06-07T08:38:46.479Z,31.16
2019-06-07T08:41:10.294Z,33.07
2019-06-07T08:43:30.013Z,31.09
2019-06-07T08:46:06.048Z,31.27
2019-06-07T08:48:30.558Z,31.13
2019-06-07T08:51:06.542Z,30.78
2019-06-07T08:53:30.823Z,31.41
2019-06-07T08:56:06.898Z,31.62
2019-06-07T08:58:31.207Z,30.22
2019-06-07T09:01:07.847Z,30.95
2019-06-07T09:03:32.611Z,30.01
2019-06-07T09:06:16.333Z,30.41
2019-06-07T09:08:33.010Z,29.46
2019-06-07T09:11:10.267Z,30.87
2019-06-07T09:13:36.745Z,29.18
2019-06-07T09:16:08.794Z,29.72
2019-06-07T09:18:43.588Z,28.86
2019-06-07T09:21:09.781Z,29.72
2019-06-07T09:23:39.260Z,29.34
2019-06-07T09:26:17.971Z,28.98
2019-06-07T09:28:39.717Z,29.39
2019-06-07T09:31:11.917Z,29.45
2019-06-07T09:33:40.113Z,29.04
2019-06-07T09:36:12.827Z,28.39
2019-06-07T09:38:40.839Z,28.42
2019-06-07T09:41:10.191Z,28.39
2019-06-07T09:44:01.879Z,28.21
2019-06-07T09:46:45.157Z,28.83
2019-06-07T09:49:28.865Z,28.76
2019-06-07T09:51:45.442Z,28.77
2019-06-07T09:55:02.448Z,27.57
2019-06-07T09:56:46.433Z,28.38
2019-06-07T09:59:15.812Z,29.65
2019-06-07T10:01:47.023Z,28.66
2019-06-07T10:04:30.905Z,28.52
2019-06-07T10:06:51.638Z,27.47
2019-06-07T10:10:09.335Z,28.97
2019-06-07T10:12:00.271Z,28.65
2019-06-07T10:14:30.169Z,28.76
2019-06-07T10:17:00.949Z,29.74
2019-06-07T10:19:30.227Z,28.57
2019-06-07T10:21:59.812Z,28.73
2019-06-07T10:24:30.563Z,28.41
2019-06-07T10:26:59.903Z,27.68
2019-06-07T10:29:29.226Z,27.64
2019-06-07T10:34:49.002Z,28.73
2019-06-07T10:37:18.342Z,27.61
2019-06-07T10:39:49.288Z,28.12
2019-06-07T10:42:18.753Z,27.64
2019-06-07T10:44:48.017Z,27.52
2019-06-07T10:47:17.329Z,27.04
2019-06-07T10:49:46.681Z,27.22
2019-06-07T10:52:15.988Z,26.65
2019-06-07T10:54:45.253Z,27.00
2019-06-07T10:57:16.228Z,28.30
2019-06-07T10:59:45.630Z,27.14
2019-06-07T11:02:14.997Z,26.30
2019-06-07T11:04:44.325Z,26.67
2019-06-07T11:07:17.206Z,27.15
2019-06-07T11:09:46.620Z,26.52
2019-06-07T11:12:15.954Z,26.34
2019-06-07T11:14:45.247Z,26.88
2019-06-07T11:17:15.754Z,27.16
2019-06-07T11:19:45.314Z,26.48
2019-06-07T11:22:14.614Z,25.84
2019-06-07T11:24:44.608Z,26.24
2019-06-07T11:27:16.210Z,26.31
2019-06-07T11:29:45.037Z,26.25
2019-06-07T11:32:14.669Z,25.78
2019-06-07T11:34:44.636Z,26.24
2019-06-07T11:37:15.936Z,26.15
2019-06-07T11:39:45.156Z,26.76
2019-06-07T11:42:14.537Z,25.47
2019-06-07T11:44:56.181Z,26.01
2019-06-07T11:47:14.959Z,25.53
2019-06-07T11:49:44.306Z,25.52
2019-06-07T11:52:13.991Z,25.83
2019-06-07T11:54:47.758Z,25.35
2019-06-07T11:57:15.214Z,24.44
2019-06-07T11:59:44.578Z,25.10
2019-06-07T12:02:13.878Z,24.48
2019-06-07T12:04:43.224Z,24.20
2019-06-07T12:07:14.182Z,25.06
2019-06-07T12:09:56.069Z,24.47
2019-06-07T12:12:14.776Z,24.30
2019-06-07T12:14:44.133Z,24.21
2019-06-07T12:17:13.518Z,24.11
2019-06-07T12:19:44.403Z,24.02
2019-06-07T12:22:14.156Z,23.56
2019-06-07T12:24:43.569Z,24.58
2019-06-07T12:27:12.927Z,23.80
2019-06-07T12:29:42.244Z,23.44
2019-06-07T12:32:11.534Z,23.81
2019-06-07T12:34:40.914Z,23.69
2019-06-07T12:37:11.629Z,23.22
2019-06-07T12:39:41.033Z,23.22
2019-06-07T12:42:10.329Z,23.62
2019-06-07T12:44:39.672Z,23.00
2019-06-07T12:47:08.967Z,23.34
2019-06-07T12:49:38.280Z,23.04
2019-06-07T12:52:14.599Z,22.46
2019-06-07T12:54:42.972Z,22.21
2019-06-07T12:57:13.708Z,22.21
2019-06-07T12:59:43.286Z,22.10
2019-06-07T13:02:14.130Z,22.02
2019-06-07T13:04:43.498Z,21.92
2019-06-07T13:07:12.794Z,21.23
2019-06-07T13:09:42.148Z,21.37
2019-06-07T13:12:11.482Z,21.90
2019-06-07T13:14:40.863Z,21.54
2019-06-07T13:17:10.185Z,20.90
2019-06-07T13:19:39.507Z,20.27
2019-06-07T13:22:08.838Z,21.17
2019-06-07T13:24:38.141Z,20.72
2019-06-07T13:27:07.540Z,21.01
2019-06-07T13:29:36.853Z,21.30
2019-06-07T13:32:06.201Z,20.44
2019-06-07T13:34:35.482Z,20.18
2019-06-07T13:37:04.816Z,20.78
2019-06-07T13:39:34.137Z,20.85
2019-06-07T13:42:03.455Z,21.09
2019-06-07T13:44:32.743Z,21.83
2019-06-07T13:47:02.099Z,22.44
2019-06-07T13:49:31.412Z,21.10
2019-06-07T13:52:00.724Z,21.69
2019-06-07T13:54:30.012Z,20.53
2019-06-07T13:57:02.559Z,20.80
2019-06-07T13:59:30.353Z,21.13
2019-06-07T14:01:59.665Z,21.40
2019-06-07T14:04:29.155Z,21.75
2019-06-07T14:06:58.475Z,22.64
2019-06-07T14:09:29.717Z,22.57
2019-06-07T14:11:59.225Z,22.29
2019-06-07T14:14:29.500Z,22.89
2019-06-07T14:16:59.693Z,23.04
2019-06-07T14:19:29.001Z,23.52
2019-06-07T14:21:58.296Z,23.18
2019-06-07T14:24:27.657Z,22.95
2019-06-07T14:27:09.057Z,22.33
2019-06-07T14:29:38.971Z,22.21
2019-06-07T14:32:08.673Z,23.26
2019-06-07T14:34:38.120Z,22.94
2019-06-07T14:37:07.532Z,23.48
2019-06-07T14:39:36.842Z,24.06
2019-06-07T14:42:09.677Z,23.87
2019-06-07T14:44:37.225Z,24.34
2019-06-07T14:47:06.616Z,24.39
2019-06-07T14:49:35.977Z,23.47
2019-06-07T14:52:05.318Z,21.95
2019-06-07T14:54:38.912Z,23.05
2019-06-07T14:57:06.251Z,24.07
2019-06-07T14:59:35.595Z,23.02
2019-06-07T15:02:04.891Z,22.74
2019-06-07T15:04:34.812Z,23.42
2019-06-07T15:07:05.726Z,23.50
2019-06-07T15:09:35.261Z,24.42
2019-06-07T15:12:04.863Z,23.53
2019-06-07T15:14:35.405Z,23.28
2019-06-07T15:17:04.886Z,23.93
2019-06-07T15:19:36.376Z,23.34
2019-06-07T15:22:05.516Z,23.38
2019-06-07T15:24:37.771Z,23.82
2019-06-07T15:27:06.091Z,25.48
2019-06-07T15:29:38.335Z,27.34
2019-06-07T15:32:06.838Z,28.77
2019-06-07T15:34:36.394Z,30.72
2019-06-07T15:37:05.960Z,34.87
2019-06-07T15:39:38.838Z,35.54
2019-06-07T15:42:09.322Z,37.65
2019-06-07T15:44:57.038Z,37.93
2019-06-07T15:47:30.011Z,39.00
2019-06-07T15:49:59.542Z,37.19
2019-06-07T15:52:38.329Z,37.54
2019-06-07T15:55:13.489Z,37.97
2019-06-07T15:57:52.761Z,40.29
2019-06-07T16:00:22.368Z,42.44
2019-06-07T16:02:52.425Z,43.32
2019-06-07T16:05:25.497Z,44.54
2019-06-07T16:07:58.072Z,46.44
2019-06-07T16:10:28.014Z,45.75
2019-06-07T16:13:01.634Z,47.85
2019-06-07T16:15:32.994Z,46.73
2019-06-07T16:18:14.376Z,47.71
2019-06-07T16:20:43.970Z,48.98
2019-06-07T16:23:13.388Z,50.17
2019-06-07T16:25:47.621Z,49.33
2019-06-07T16:28:16.918Z,49.50
2019-06-07T16:30:47.330Z,48.95
2019-06-07T16:33:16.680Z,48.67
2019-06-07T16:35:46.967Z,46.98
2019-06-07T16:38:16.312Z,43.98
2019-06-07T16:40:45.691Z,42.85
2019-06-07T16:43:17.736Z,45.25
2019-06-07T16:45:49.074Z,41.72
2019-06-07T16:48:20.533Z,42.40
2019-06-07T16:50:50.016Z,41.59
2019-06-07T16:53:26.665Z,42.35
2019-06-07T16:55:59.823Z,40.62
2019-06-07T16:58:29.683Z,41.64
2019-06-07T17:01:07.624Z,40.95
2019-06-07T17:03:41.492Z,41.53
2019-06-07T17:06:15.512Z,41.27
2019-06-07T17:08:46.616Z,41.68
2019-06-07T17:11:16.049Z,39.27
2019-06-07T17:13:49.476Z,40.51
2019-06-07T17:16:21.650Z,39.44
2019-06-07T17:18:51.719Z,38.61
2019-06-07T17:21:21.096Z,39.04
2019-06-07T17:23:54.929Z,38.17
2019-06-07T17:26:25.633Z,37.77
2019-06-07T17:28:54.994Z,37.30
2019-06-07T17:31:26.689Z,36.74
2019-06-07T17:33:56.205Z,37.09
2019-06-07T17:36:28.885Z,38.11
2019-06-07T17:39:07.267Z,36.45
2019-06-07T17:41:55.163Z,36.23
2019-06-07T17:44:22.326Z,38.11
2019-06-07T17:47:04.042Z,35.92
2019-06-07T17:49:38.777Z,36.62
2019-06-07T17:52:21.194Z,36.67
2019-06-07T17:55:04.070Z,35.72
2019-06-07T17:57:39.653Z,35.81
2019-06-07T18:00:33.098Z,36.70
2019-06-07T18:03:05.367Z,35.21
2019-06-07T18:05:51.397Z,36.60
2019-06-07T18:08:19.228Z,35.64
2019-06-07T18:10:52.086Z,36.08
2019-06-07T18:13:25.661Z,36.60
2019-06-07T18:16:20.049Z,35.63
2019-06-07T18:19:04.187Z,38.61
2019-06-07T18:21:47.113Z,41.21
2019-06-07T18:24:21.054Z,39.39
2019-06-07T18:27:24.729Z,40.96
2019-06-07T18:30:10.606Z,42.12
2019-06-07T18:32:28.246Z,42.84
2019-06-07T18:35:01.579Z,41.78
2019-06-07T18:37:31.339Z,41.14
2019-06-07T18:40:01.676Z,41.90
2019-06-07T18:42:31.582Z,40.75
2019-06-07T18:45:01.700Z,41.46
2019-06-07T18:47:32.137Z,40.75
2019-06-07T18:50:11.157Z,40.81
2019-06-07T18:59:42.336Z,41.31
2019-06-07T19:02:24.306Z,39.30
2019-06-07T19:05:00.598Z,38.63
2019-06-07T19:07:22.740Z,38.18
2019-06-07T19:09:57.171Z,39.36
2019-06-07T19:12:35.584Z,38.37
2019-06-07T19:15:07.445Z,37.70
2019-06-07T19:17:46.981Z,38.10
2019-06-07T19:20:25.994Z,37.84
2019-06-07T19:23:04.530Z,36.97
2019-06-07T19:25:42.398Z,37.91
2019-06-07T19:28:20.993Z,35.64
2019-06-07T19:30:55.008Z,37.56
2019-06-07T19:33:48.401Z,37.19
2019-06-07T19:35:56.016Z,37.56
2019-06-07T19:38:26.923Z,36.52
2019-06-07T19:40:57.909Z,37.41
2019-06-07T19:43:43.786Z,36.53
2019-06-07T19:46:22.584Z,36.83
2019-06-07T19:49:10.262Z,37.54
2019-06-07T19:51:57.042Z,37.43
2019-06-07T19:54:49.710Z,37.31
2019-06-07T19:57:50.321Z,36.06
2019-06-07T20:00:13.183Z,35.24
2019-06-07T20:03:04.483Z,35.93
2019-06-07T20:05:36.689Z,36.25
2019-06-07T20:08:11.335Z,36.04
2019-06-07T20:10:58.938Z,35.29
2019-06-07T20:13:35.625Z,35.39
2019-06-07T20:16:11.162Z,35.38
2019-06-07T20:18:45.614Z,35.44
2019-06-07T20:22:09.461Z,35.58
2019-06-07T20:24:25.979Z,35.47
2019-06-07T20:26:58.216Z,35.34
2019-06-07T20:29:30.259Z,35.17
2019-06-07T20:32:09.337Z,34.74
2019-06-07T20:34:43.772Z,35.21
2019-06-07T20:37:10.395Z,35.81
2019-06-07T20:39:41.414Z,35.66
2019-06-07T20:42:10.916Z,35.54
2019-06-07T20:44:48.895Z,35.40
2019-06-07T20:47:22.341Z,36.29
2019-06-07T20:50:02.377Z,36.15
2019-06-07T20:52:37.574Z,35.96
2019-06-07T20:55:18.118Z,35.22
2019-06-07T20:58:12.947Z,35.91
2019-06-07T21:00:36.952Z,35.66
2019-06-07T21:03:07.389Z,36.85
2019-06-07T21:05:51.181Z,36.55
2019-06-07T21:08:20.526Z,35.53
2019-06-07T21:10:57.419Z,36.71
2019-06-07T21:14:31.809Z,36.58
2019-06-07T21:16:10.831Z,35.92
2019-06-07T21:18:45.273Z,36.48
2019-06-07T21:21:25.424Z,36.71
2019-06-07T21:23:53.604Z,36.86
2019-06-07T21:26:36.406Z,36.32
2019-06-07T21:29:03.473Z,36.65
2019-06-07T21:31:34.542Z,36.78
2019-06-07T21:34:09.299Z,37.29
2019-06-07T21:36:49.481Z,38.48
2019-06-07T21:39:24.615Z,37.44
2019-06-07T21:41:44.278Z,37.47
2019-06-07T21:44:13.859Z,37.64
2019-06-07T21:46:43.538Z,37.97
2019-06-07T21:49:17.411Z,37.66
2019-06-07T21:52:06.491Z,38.48
2019-06-07T21:54:36.275Z,37.73
2019-06-07T21:57:06.907Z,38.46
2019-06-07T21:59:36.370Z,38.30
2019-06-07T22:02:07.568Z,38.40
2019-06-07T22:04:41.801Z,38.19
2019-06-07T22:07:16.821Z,37.73
2019-06-07T22:09:57.894Z,37.75
2019-06-07T22:12:30.345Z,38.53
2019-06-07T22:14:59.879Z,38.40
2019-06-07T22:17:37.281Z,38.13
2019-06-07T22:20:01.014Z,38.05
2019-06-07T22:22:30.432Z,37.32
2019-06-07T22:25:01.793Z,38.64
2019-06-07T22:27:31.249Z,37.81
2019-06-07T22:30:00.748Z,38.62
2019-06-07T22:32:32.648Z,38.84
2019-06-07T22:35:03.518Z,39.02
2019-06-07T22:37:35.756Z,38.10
2019-06-07T22:40:06.257Z,38.18
2019-06-07T22:42:35.887Z,38.45
2019-06-07T22:45:05.611Z,38.69
2019-06-07T22:47:36.929Z,39.05
2019-06-07T22:50:06.582Z,39.02
2019-06-07T22:52:36.064Z,37.85
2019-06-07T22:55:10.087Z,38.76
2019-06-07T22:58:02.567Z,38.99
2019-06-07T23:00:33.586Z,39.56
2019-06-07T23:03:08.473Z,38.64
2019-06-07T23:05:36.470Z,38.40
2019-06-07T23:08:08.803Z,38.71
2019-06-07T23:11:09.082Z,38.39
2019-06-07T23:13:11.231Z,39.09
2019-06-07T23:15:40.887Z,38.29
2019-06-07T23:18:11.850Z,38.76
2019-06-07T23:20:41.374Z,38.82
2019-06-07T23:23:12.052Z,38.48
2019-06-07T23:25:43.699Z,39.03
2019-06-07T23:28:14.335Z,39.16
2019-06-07T23:30:43.980Z,39.35
2019-06-07T23:33:22.743Z,38.20
2019-06-07T23:36:14.967Z,38.08
2019-06-07T23:38:44.469Z,37.73
2019-06-07T23:41:13.889Z,39.17
2019-06-07T23:43:49.126Z,39.34
2019-06-07T23:46:21.652Z,39.10
2019-06-07T23:48:50.267Z,38.33
2019-06-07T23:51:19.721Z,38.61
2019-06-07T23:53:48.995Z,37.70
2019-06-07T23:56:18.832Z,38.51
2019-06-07T23:58:48.566Z,38.83
